Flugplatz Gundelfingen

Für EDMU sind keine METAR/TAF Berichte vorhanden.
Es werden die Flugwettermeldungen vom Flugplatz Augsburg in 45 km Entfernung angezeigt.

Bericht für EDMA

vom 20.10. um 18:20 UTC

Wind 3 kt aus 70°

Sichtweite 10 km oder mehr

gute Sicht, keine Wolken < 5000 ft, keine CB, keine Wettererscheinungen (CAVOK)

Temperatur 12.0°C

Taupunkt 11.0°C

Luftfeuchtigkeit 94%

Luftdruck 1009 hPa

EDMA 201820Z 07003KT CAVOK 12/11 Q1009

Prognose für EDMA

vom 20.10. um 00:00 UTC

Zwischen 00:00 und 00:00 UTC übergehend zu

Wind 5 kt aus 160°

Sichtweite 10 km oder mehr

keine signifikanten Wettererscheinungen

keine Wolken


Zwischen 00:00 UTC und 00:00 UTC

Wind 3 kt aus 50°

Sichtweite 10 km oder mehr

keine signifikanten Wettererscheinungen

keine Wolken

TAF EDMA 201700Z 2018/2103 05003KT CAVOK BECMG 2018/2020 16005KT
Impressum